sensor_id;sensor_type;location;lat;lon;timestamp;pressure;altitude;pressure_sealevel;temperature;humidity
47054;BME280;32811;52.382;5.270;2023-01-30T00:01:55;101682.72;;;4.93;100.00
47054;BME280;32811;52.382;5.270;2023-01-30T00:04:30;101660.69;;;4.97;100.00
47054;BME280;32811;52.382;5.270;2023-01-30T00:07:09;101682.59;;;5.11;100.00
47054;BME280;32811;52.382;5.270;2023-01-30T00:09:43;101663.94;;;5.14;100.00
47054;BME280;32811;52.382;5.270;2023-01-30T00:12:15;101693.22;;;5.43;100.00
47054;BME280;32811;52.382;5.270;2023-01-30T00:14:48;101664.72;;;5.34;100.00
47054;BME280;32811;52.382;5.270;2023-01-30T00:17:23;101642.38;;;5.30;100.00
47054;BME280;32811;52.382;5.270;2023-01-30T00:19:50;101666.69;;;5.64;100.00
47054;BME280;32811;52.382;5.270;2023-01-30T00:22:23;101649.81;;;5.69;100.00
47054;BME280;32811;52.382;5.270;2023-01-30T00:24:53;101670.09;;;5.87;100.00
47054;BME280;32811;52.382;5.270;2023-01-30T00:27:26;101635.59;;;5.99;100.00
47054;BME280;32811;52.382;5.270;2023-01-30T00:33:42;101605.84;;;6.03;100.00
47054;BME280;32811;52.382;5.270;2023-01-30T00:36:20;101585.53;;;6.09;100.00
47054;BME280;32811;52.382;5.270;2023-01-30T00:38:57;101615.66;;;6.40;100.00
47054;BME280;32811;52.382;5.270;2023-01-30T00:41:38;101590.56;;;6.32;100.00
47054;BME280;32811;52.382;5.270;2023-01-30T00:44:23;101578.44;;;6.26;100.00
47054;BME280;32811;52.382;5.270;2023-01-30T00:47:16;101582.78;;;6.29;100.00
47054;BME280;32811;52.382;5.270;2023-01-30T00:50:18;101561.97;;;6.19;100.00
47054;BME280;32811;52.382;5.270;2023-01-30T00:52:59;101584.00;;;6.40;100.00
47054;BME280;32811;52.382;5.270;2023-01-30T00:55:57;101548.28;;;6.19;100.00
47054;BME280;32811;52.382;5.270;2023-01-30T00:58:45;101548.28;;;6.19;100.00
47054;BME280;32811;52.382;5.270;2023-01-30T01:01:20;101551.97;;;6.27;100.00
47054;BME280;32811;52.382;5.270;2023-01-30T01:03:58;101532.28;;;6.26;100.00
47054;BME280;32811;52.382;5.270;2023-01-30T01:06:31;101540.06;;;6.29;100.00
47054;BME280;32811;52.382;5.270;2023-01-30T01:09:12;101529.66;;;6.24;100.00
47054;BME280;32811;52.382;5.270;2023-01-30T01:11:41;101520.13;;;6.20;100.00
47054;BME280;32811;52.382;5.270;2023-01-30T01:14:14;101545.41;;;6.35;100.00
47054;BME280;32811;52.382;5.270;2023-01-30T01:17:09;101540.13;;;6.31;100.00
47054;BME280;32811;52.382;5.270;2023-01-30T01:19:39;101527.81;;;6.20;100.00
47054;BME280;32811;52.382;5.270;2023-01-30T01:22:13;101546.72;;;6.50;100.00
47054;BME280;32811;52.382;5.270;2023-01-30T01:24:43;101522.13;;;6.29;100.00
47054;BME280;32811;52.382;5.270;2023-01-30T01:27:17;101542.94;;;6.38;100.00
47054;BME280;32811;52.382;5.270;2023-01-30T01:29:50;101519.41;;;6.24;100.00
47054;BME280;32811;52.382;5.270;2023-01-30T01:32:30;101521.88;;;6.21;100.00
47054;BME280;32811;52.382;5.270;2023-01-30T01:35:16;101570.31;;;6.39;100.00
47054;BME280;32811;52.382;5.270;2023-01-30T01:38:22;101512.03;;;6.08;100.00
47054;BME280;32811;52.382;5.270;2023-01-30T01:41:24;101512.69;;;6.02;100.00
47054;BME280;32811;52.382;5.270;2023-01-30T01:45:17;101564.91;;;6.30;100.00
47054;BME280;32811;52.382;5.270;2023-01-30T01:56:06;101517.63;;;5.96;100.00
47054;BME280;32811;52.382;5.270;2023-01-30T01:59:37;101501.09;;;5.88;100.00
47054;BME280;32811;52.382;5.270;2023-01-30T02:44:05;101560.56;;;6.03;100.00
47054;BME280;32811;52.382;5.270;2023-01-30T02:46:47;101544.44;;;6.06;100.00
47054;BME280;32811;52.382;5.270;2023-01-30T02:49:31;101526.13;;;5.95;100.00
47054;BME280;32811;52.382;5.270;2023-01-30T02:52:02;101532.22;;;5.99;100.00
47054;BME280;32811;52.382;5.270;2023-01-30T02:54:31;101546.91;;;6.03;100.00
47054;BME280;32811;52.382;5.270;2023-01-30T02:56:59;101542.69;;;6.05;100.00
47054;BME280;32811;52.382;5.270;2023-01-30T02:59:33;101541.94;;;6.08;100.00
47054;BME280;32811;52.382;5.270;2023-01-30T03:02:15;101542.19;;;6.15;100.00
47054;BME280;32811;52.382;5.270;2023-01-30T03:07:54;101530.66;;;6.28;100.00
47054;BME280;32811;52.382;5.270;2023-01-30T03:10:30;101527.16;;;6.26;100.00
47054;BME280;32811;52.382;5.270;2023-01-30T03:13:03;101527.25;;;6.29;100.00
47054;BME280;32811;52.382;5.270;2023-01-30T03:15:38;101525.41;;;6.25;100.00
47054;BME280;32811;52.382;5.270;2023-01-30T03:18:06;101515.13;;;6.23;100.00
47054;BME280;32811;52.382;5.270;2023-01-30T03:20:38;101530.66;;;6.28;100.00
47054;BME280;32811;52.382;5.270;2023-01-30T03:23:06;101510.19;;;6.30;100.00
47054;BME280;32811;52.382;5.270;2023-01-30T03:25:35;101515.13;;;6.23;100.00
47054;BME280;32811;52.382;5.270;2023-01-30T03:28:04;101506.13;;;6.36;100.00
47054;BME280;32811;52.382;5.270;2023-01-30T03:30:31;101507.88;;;6.37;100.00
47054;BME280;32811;52.382;5.270;2023-01-30T03:32:58;101507.09;;;6.40;100.00
47054;BME280;32811;52.382;5.270;2023-01-30T03:35:25;101517.28;;;6.38;100.00
47054;BME280;32811;52.382;5.270;2023-01-30T03:37:53;101508.72;;;6.38;100.00
47054;BME280;32811;52.382;5.270;2023-01-30T03:40:20;101506.22;;;6.39;100.00
47054;BME280;32811;52.382;5.270;2023-01-30T03:42:47;101512.47;;;6.48;100.00
47054;BME280;32811;52.382;5.270;2023-01-30T03:45:15;101490.00;;;6.40;100.00
47054;BME280;32811;52.382;5.270;2023-01-30T03:47:42;101498.53;;;6.39;100.00
47054;BME280;32811;52.382;5.270;2023-01-30T03:50:09;101504.72;;;6.46;100.00
47054;BME280;32811;52.382;5.270;2023-01-30T03:52:36;101502.16;;;6.46;100.00
47054;BME280;32811;52.382;5.270;2023-01-30T03:55:03;101506.47;;;6.47;100.00
47054;BME280;32811;52.382;5.270;2023-01-30T03:57:30;101505.78;;;6.53;100.00
47054;BME280;32811;52.382;5.270;2023-01-30T03:59:57;101505.69;;;6.50;100.00
47054;BME280;32811;52.382;5.270;2023-01-30T04:02:24;101506.72;;;6.55;100.00
47054;BME280;32811;52.382;5.270;2023-01-30T04:04:52;101507.34;;;6.48;100.00
47054;BME280;32811;52.382;5.270;2023-01-30T04:07:19;101514.22;;;6.49;100.00
47054;BME280;32811;52.382;5.270;2023-01-30T04:09:46;101508.34;;;6.53;100.00
47054;BME280;32811;52.382;5.270;2023-01-30T04:12:12;101513.50;;;6.53;100.00
47054;BME280;32811;52.382;5.270;2023-01-30T04:14:39;101508.41;;;6.54;100.00
47054;BME280;32811;52.382;5.270;2023-01-30T04:17:06;101512.22;;;6.67;100.00
47054;BME280;32811;52.382;5.270;2023-01-30T04:19:33;101499.03;;;6.56;100.00
47054;BME280;32811;52.382;5.270;2023-01-30T04:21:59;101508.41;;;6.54;100.00
47054;BME280;32811;52.382;5.270;2023-01-30T04:24:26;101508.41;;;6.54;100.00
47054;BME280;32811;52.382;5.270;2023-01-30T04:26:53;101511.00;;;6.56;100.00
47054;BME280;32811;52.382;5.270;2023-01-30T04:29:20;101501.38;;;6.49;100.00
47054;BME280;32811;52.382;5.270;2023-01-30T04:31:47;101515.13;;;6.51;100.00
47054;BME280;32811;52.382;5.270;2023-01-30T04:34:14;101501.38;;;6.49;100.00
47054;BME280;32811;52.382;5.270;2023-01-30T04:36:40;101502.31;;;6.51;100.00
47054;BME280;32811;52.382;5.270;2023-01-30T04:39:07;101502.09;;;6.44;100.00
47054;BME280;32811;52.382;5.270;2023-01-30T04:41:34;101521.91;;;6.49;100.00
47054;BME280;32811;52.382;5.270;2023-01-30T04:44:01;101517.63;;;6.49;100.00
47054;BME280;32811;52.382;5.270;2023-01-30T04:46:28;101516.13;;;6.54;100.00
47054;BME280;32811;52.382;5.270;2023-01-30T04:48:56;101515.19;;;6.52;100.00
47054;BME280;32811;52.382;5.270;2023-01-30T04:51:23;101509.28;;;6.55;100.00
47054;BME280;32811;52.382;5.270;2023-01-30T04:53:50;101521.28;;;6.56;100.00
47054;BME280;32811;52.382;5.270;2023-01-30T04:56:17;101521.28;;;6.56;100.00
47054;BME280;32811;52.382;5.270;2023-01-30T04:58:44;101520.19;;;6.49;100.00
47054;BME280;32811;52.382;5.270;2023-01-30T05:01:18;101522.75;;;6.49;100.00
47054;BME280;32811;52.382;5.270;2023-01-30T05:03:51;101520.06;;;6.44;100.00
47054;BME280;32811;52.382;5.270;2023-01-30T05:06:19;101523.41;;;6.42;100.00
47054;BME280;32811;52.382;5.270;2023-01-30T05:08:53;101534.06;;;6.29;100.00
47054;BME280;32811;52.382;5.270;2023-01-30T05:11:21;101532.69;;;6.13;100.00
47054;BME280;32811;52.382;5.270;2023-01-30T05:13:48;101519.41;;;5.99;100.00
47054;BME280;32811;52.382;5.270;2023-01-30T05:16:15;101524.22;;;5.91;100.00
47054;BME280;32811;52.382;5.270;2023-01-30T05:18:43;101536.13;;;5.89;100.00
47054;BME280;32811;52.382;5.270;2023-01-30T05:21:12;101529.19;;;5.87;100.00
47054;BME280;32811;52.382;5.270;2023-01-30T05:23:39;101530.59;;;5.77;100.00
47054;BME280;32811;52.382;5.270;2023-01-30T05:26:07;101541.69;;;5.77;100.00
47054;BME280;32811;52.382;5.270;2023-01-30T05:28:34;101551.78;;;5.73;100.00
47054;BME280;32811;52.382;5.270;2023-01-30T05:31:05;101556.81;;;5.70;100.00
47054;BME280;32811;52.382;5.270;2023-01-30T05:33:33;101552.44;;;5.67;100.00
47054;BME280;32811;52.382;5.270;2023-01-30T05:36:00;101559.84;;;5.59;100.00
47054;BME280;32811;52.382;5.270;2023-01-30T05:38:27;101553.78;;;5.57;100.00
47054;BME280;32811;52.382;5.270;2023-01-30T05:40:58;101549.25;;;5.50;100.00
47054;BME280;32811;52.382;5.270;2023-01-30T05:43:25;101545.69;;;5.45;100.00
47054;BME280;32811;52.382;5.270;2023-01-30T05:45:53;101537.53;;;5.33;100.00
47054;BME280;32811;52.382;5.270;2023-01-30T05:48:21;101535.91;;;5.35;100.00
47054;BME280;32811;52.382;5.270;2023-01-30T05:50:56;101547.34;;;5.22;100.00
47054;BME280;32811;52.382;5.270;2023-01-30T05:53:26;101546.81;;;5.29;100.00
47054;BME280;32811;52.382;5.270;2023-01-30T05:55:54;101544.75;;;5.20;100.00
47054;BME280;32811;52.382;5.270;2023-01-30T05:58:22;101537.53;;;5.10;100.00
47054;BME280;32811;52.382;5.270;2023-01-30T06:00:50;101547.78;;;5.10;100.00
47054;BME280;32811;52.382;5.270;2023-01-30T06:03:16;101556.56;;;5.17;100.00
47054;BME280;32811;52.382;5.270;2023-01-30T06:05:44;101554.06;;;5.18;100.00
47054;BME280;32811;52.382;5.270;2023-01-30T06:08:11;101553.00;;;5.13;100.00
47054;BME280;32811;52.382;5.270;2023-01-30T06:10:38;101561.56;;;5.14;100.00
47054;BME280;32811;52.382;5.270;2023-01-30T06:13:05;101567.38;;;5.10;100.00
47054;BME280;32811;52.382;5.270;2023-01-30T06:15:32;101572.31;;;5.05;100.00
47054;BME280;32811;52.382;5.270;2023-01-30T06:17:58;101582.75;;;5.10;100.00
47054;BME280;32811;52.382;5.270;2023-01-30T06:20:25;101588.47;;;5.04;100.00
47054;BME280;32811;52.382;5.270;2023-01-30T06:22:52;101590.41;;;5.10;100.00
47054;BME280;32811;52.382;5.270;2023-01-30T06:25:19;101571.97;;;5.18;100.00
47054;BME280;32811;52.382;5.270;2023-01-30T06:27:46;101565.34;;;5.24;100.00
47054;BME280;32811;52.382;5.270;2023-01-30T06:30:13;101568.00;;;5.27;100.00
47054;BME280;32811;52.382;5.270;2023-01-30T06:32:40;101570.34;;;5.43;100.00
47054;BME280;32811;52.382;5.270;2023-01-30T06:35:08;101556.09;;;5.50;100.00
47054;BME280;32811;52.382;5.270;2023-01-30T06:37:35;101555.09;;;5.46;100.00
47054;BME280;32811;52.382;5.270;2023-01-30T06:40:02;101566.72;;;5.38;100.00
47054;BME280;32811;52.382;5.270;2023-01-30T06:42:29;101558.34;;;5.42;100.00
47054;BME280;32811;52.382;5.270;2023-01-30T06:44:56;101570.97;;;5.37;100.00
47054;BME280;32811;52.382;5.270;2023-01-30T06:47:23;101574.38;;;5.36;100.00
47054;BME280;32811;52.382;5.270;2023-01-30T06:49:50;101579.31;;;5.32;100.00
47054;BME280;32811;52.382;5.270;2023-01-30T06:52:17;101580.63;;;5.22;100.00
47054;BME280;32811;52.382;5.270;2023-01-30T06:54:44;101586.47;;;5.40;100.00
47054;BME280;32811;52.382;5.270;2023-01-30T06:57:11;101584.94;;;5.23;100.00
47054;BME280;32811;52.382;5.270;2023-01-30T06:59:38;101587.38;;;5.20;100.00
47054;BME280;32811;52.382;5.270;2023-01-30T07:02:04;101581.28;;;5.16;100.00
47054;BME280;32811;52.382;5.270;2023-01-30T07:04:32;101588.81;;;5.13;100.00
47054;BME280;32811;52.382;5.270;2023-01-30T07:06:59;101582.59;;;5.07;100.00
47054;BME280;32811;52.382;5.270;2023-01-30T07:09:26;101592.84;;;5.07;100.00
47054;BME280;32811;52.382;5.270;2023-01-30T07:11:53;101603.03;;;5.05;100.00
47054;BME280;32811;52.382;5.270;2023-01-30T07:14:20;101614.19;;;5.07;100.00
47054;BME280;32811;52.382;5.270;2023-01-30T07:16:47;101624.13;;;4.99;100.00
47054;BME280;32811;52.382;5.270;2023-01-30T07:19:14;101619.88;;;5.00;100.00
47054;BME280;32811;52.382;5.270;2023-01-30T07:21:41;101611.13;;;4.95;100.00
47054;BME280;32811;52.382;5.270;2023-01-30T07:24:07;101618.25;;;5.02;100.00
47054;BME280;32811;52.382;5.270;2023-01-30T07:26:35;101615.25;;;5.12;100.00
47054;BME280;32811;52.382;5.270;2023-01-30T07:29:02;101621.88;;;5.07;100.00
47054;BME280;32811;52.382;5.270;2023-01-30T07:31:28;101621.03;;;5.08;100.00
47054;BME280;32811;52.382;5.270;2023-01-30T07:33:55;101627.53;;;5.00;100.00
47054;BME280;32811;52.382;5.270;2023-01-30T07:36:22;101627.84;;;5.08;100.00
47054;BME280;32811;52.382;5.270;2023-01-30T07:38:48;101608.75;;;5.20;100.00
47054;BME280;32811;52.382;5.270;2023-01-30T07:41:15;101618.09;;;5.20;100.00
47054;BME280;32811;52.382;5.270;2023-01-30T07:43:42;101604.41;;;5.19;100.00
47054;BME280;32811;52.382;5.270;2023-01-30T07:46:09;101607.16;;;5.24;100.00
47054;BME280;32811;52.382;5.270;2023-01-30T07:48:35;101608.44;;;5.13;100.00
47054;BME280;32811;52.382;5.270;2023-01-30T07:51:02;101617.88;;;5.14;100.00
47054;BME280;32811;52.382;5.270;2023-01-30T07:53:29;101623.78;;;5.13;100.00
47054;BME280;32811;52.382;5.270;2023-01-30T07:55:56;101621.59;;;5.22;100.00
47054;BME280;32811;52.382;5.270;2023-01-30T07:58:23;101633.44;;;5.20;100.00
47054;BME280;32811;52.382;5.270;2023-01-30T08:00:53;101636.75;;;5.17;100.00
47054;BME280;32811;52.382;5.270;2023-01-30T08:03:21;101624.91;;;5.19;100.00
47054;BME280;32811;52.382;5.270;2023-01-30T08:05:48;101618.22;;;5.23;100.00
47054;BME280;32811;52.382;5.270;2023-01-30T08:08:15;101623.44;;;5.26;100.00
47054;BME280;32811;52.382;5.270;2023-01-30T08:10:43;101637.28;;;5.31;100.00
47054;BME280;32811;52.382;5.270;2023-01-30T08:13:09;101635.16;;;5.42;100.00
47054;BME280;32811;52.382;5.270;2023-01-30T08:15:36;101635.84;;;5.38;100.00
47054;BME280;32811;52.382;5.270;2023-01-30T08:18:02;101662.69;;;5.48;100.00
47054;BME280;32811;52.382;5.270;2023-01-30T08:20:29;101652.28;;;5.43;100.00
47054;BME280;32811;52.382;5.270;2023-01-30T08:22:57;101676.59;;;5.54;100.00
47054;BME280;32811;52.382;5.270;2023-01-30T08:25:24;101688.34;;;5.49;100.00
47054;BME280;32811;52.382;5.270;2023-01-30T08:27:51;101673.09;;;5.52;100.00
47054;BME280;32811;52.382;5.270;2023-01-30T08:30:19;101673.97;;;5.53;100.00
47054;BME280;32811;52.382;5.270;2023-01-30T08:32:47;101660.66;;;5.61;100.00
47054;BME280;32811;52.382;5.270;2023-01-30T08:35:14;101654.66;;;5.61;100.00
47054;BME280;32811;52.382;5.270;2023-01-30T08:37:41;101659.78;;;5.61;100.00
47054;BME280;32811;52.382;5.270;2023-01-30T08:40:09;101663.47;;;5.69;100.00
47054;BME280;32811;52.382;5.270;2023-01-30T08:42:37;101661.16;;;5.75;100.00
47054;BME280;32811;52.382;5.270;2023-01-30T08:45:05;101665.41;;;5.75;100.00
47054;BME280;32811;52.382;5.270;2023-01-30T08:47:32;101662.25;;;5.82;100.00
47054;BME280;32811;52.382;5.270;2023-01-30T08:50:01;101669.94;;;5.82;100.00
47054;BME280;32811;52.382;5.270;2023-01-30T08:52:27;101669.06;;;5.81;100.00
47054;BME280;32811;52.382;5.270;2023-01-30T08:54:55;101686.25;;;5.84;100.00
47054;BME280;32811;52.382;5.270;2023-01-30T08:57:22;101686.31;;;5.86;100.00
47054;BME280;32811;52.382;5.270;2023-01-30T08:59:49;101688.28;;;5.93;100.00
47054;BME280;32811;52.382;5.270;2023-01-30T09:02:16;101700.09;;;5.89;100.00
47054;BME280;32811;52.382;5.270;2023-01-30T09:04:44;101709.59;;;5.92;100.00
47054;BME280;32811;52.382;5.270;2023-01-30T09:07:10;101701.03;;;5.91;100.00
47054;BME280;32811;52.382;5.270;2023-01-30T09:09:37;101716.56;;;5.94;100.00
47054;BME280;32811;52.382;5.270;2023-01-30T09:12:03;101708.88;;;5.94;100.00
47054;BME280;32811;52.382;5.270;2023-01-30T09:14:30;101725.34;;;6.01;100.00
47054;BME280;32811;52.382;5.270;2023-01-30T09:16:57;101722.66;;;5.98;100.00
47054;BME280;32811;52.382;5.270;2023-01-30T09:19:26;101737.47;;;6.05;100.00
47054;BME280;32811;52.382;5.270;2023-01-30T09:21:54;101734.16;;;6.08;100.00
47054;BME280;32811;52.382;5.270;2023-01-30T09:24:22;101730.75;;;6.09;100.00
47054;BME280;32811;52.382;5.270;2023-01-30T09:26:53;101713.50;;;6.05;100.00
47054;BME280;32811;52.382;5.270;2023-01-30T09:29:20;101719.31;;;6.00;100.00
47054;BME280;32811;52.382;5.270;2023-01-30T09:31:47;101720.41;;;6.06;100.00
47054;BME280;32811;52.382;5.270;2023-01-30T09:34:14;101732.38;;;6.07;100.00
47054;BME280;32811;52.382;5.270;2023-01-30T09:36:42;101744.56;;;6.12;100.00
47054;BME280;32811;52.382;5.270;2023-01-30T09:39:08;101733.63;;;6.16;100.00
47054;BME280;32811;52.382;5.270;2023-01-30T09:44:49;101731.31;;;6.24;100.00
47054;BME280;32811;52.382;5.270;2023-01-30T09:55:57;101743.31;;;6.25;100.00
47054;BME280;32811;52.382;5.270;2023-01-30T09:58:52;101752.69;;;6.24;100.00
47054;BME280;32811;52.382;5.270;2023-01-30T10:04:07;101747.78;;;6.31;100.00
47054;BME280;32811;52.382;5.270;2023-01-30T10:06:43;101759.50;;;6.24;100.00
47054;BME280;32811;52.382;5.270;2023-01-30T10:09:25;101766.50;;;6.28;100.00
47054;BME280;32811;52.382;5.270;2023-01-30T10:12:22;101768.25;;;6.29;100.00
47054;BME280;32811;52.382;5.270;2023-01-30T10:25:48;101784.72;;;6.36;100.00
47054;BME280;32811;52.382;5.270;2023-01-30T10:28:38;101789.63;;;6.52;100.00
47054;BME280;32811;52.382;5.270;2023-01-30T10:31:11;101780.38;;;6.57;100.00
47054;BME280;32811;52.382;5.270;2023-01-30T10:34:04;101783.09;;;6.62;100.00
47054;BME280;32811;52.382;5.270;2023-01-30T10:36:40;101778.47;;;6.76;100.00
47054;BME280;32811;52.382;5.270;2023-01-30T10:39:27;101776.88;;;6.79;100.00
47054;BME280;32811;52.382;5.270;2023-01-30T10:42:10;101786.88;;;6.72;100.00
47054;BME280;32811;52.382;5.270;2023-01-30T10:44:39;101789.44;;;6.72;100.00
47054;BME280;32811;52.382;5.270;2023-01-30T10:49:43;101786.16;;;6.76;100.00
47054;BME280;32811;52.382;5.270;2023-01-30T10:55:11;101797.13;;;6.96;100.00
47054;BME280;32811;52.382;5.270;2023-01-30T10:58:05;101785.16;;;6.96;100.00
47054;BME280;32811;52.382;5.270;2023-01-30T11:06:00;101802.88;;;6.89;100.00
47054;BME280;32811;52.382;5.270;2023-01-30T11:08:30;101791.19;;;6.73;100.00
47054;BME280;32811;52.382;5.270;2023-01-30T11:10:59;101797.34;;;6.78;100.00
47054;BME280;32811;52.382;5.270;2023-01-30T11:13:28;101807.84;;;6.84;100.00
47054;BME280;32811;52.382;5.270;2023-01-30T11:16:03;101806.91;;;6.82;100.00
47054;BME280;32811;52.382;5.270;2023-01-30T11:18:30;101797.34;;;6.78;100.00
47054;BME280;32811;52.382;5.270;2023-01-30T11:21:25;101795.66;;;6.78;100.00
47054;BME280;32811;52.382;5.270;2023-01-30T11:24:18;101797.50;;;6.82;100.00
47054;BME280;32811;52.382;5.270;2023-01-30T11:26:46;101796.16;;;6.92;100.00
47054;BME280;32811;52.382;5.270;2023-01-30T11:32:24;101780.53;;;7.12;100.00
47054;BME280;32811;52.382;5.270;2023-01-30T11:35:25;101792.25;;;7.29;100.00
47054;BME280;32811;52.382;5.270;2023-01-30T11:37:53;101803.81;;;7.42;100.00
47054;BME280;32811;52.382;5.270;2023-01-30T11:40:23;101800.94;;;7.33;100.00
47054;BME280;32811;52.382;5.270;2023-01-30T11:42:57;101807.72;;;7.31;100.00
47054;BME280;32811;52.382;5.270;2023-01-30T11:45:24;101819.63;;;7.28;100.00
47054;BME280;32811;52.382;5.270;2023-01-30T11:47:59;101816.00;;;7.22;100.00
47054;BME280;32811;52.382;5.270;2023-01-30T11:50:37;101809.25;;;7.25;100.00
47054;BME280;32811;52.382;5.270;2023-01-30T11:53:36;101824.47;;;7.19;100.00
47054;BME280;32811;52.382;5.270;2023-01-30T11:56:14;101826.09;;;7.17;100.00
47054;BME280;32811;52.382;5.270;2023-01-30T11:58:43;101819.69;;;7.30;100.00
47054;BME280;32811;52.382;5.270;2023-01-30T12:01:13;101816.22;;;7.28;100.00
47054;BME280;32811;52.382;5.270;2023-01-30T12:03:50;101812.88;;;7.32;100.00
47054;BME280;32811;52.382;5.270;2023-01-30T12:06:40;101829.78;;;7.25;100.00
47054;BME280;32811;52.382;5.270;2023-01-30T12:09:30;101826.97;;;7.18;100.00
47054;BME280;32811;52.382;5.270;2023-01-30T12:11:58;101824.47;;;7.19;100.00
47054;BME280;32811;52.382;5.270;2023-01-30T12:14:34;101820.84;;;7.14;100.00
47054;BME280;32811;52.382;5.270;2023-01-30T12:17:21;101831.25;;;7.17;100.00
47054;BME280;32811;52.382;5.270;2023-01-30T12:20:16;101831.25;;;7.17;100.00
47054;BME280;32811;52.382;5.270;2023-01-30T12:22:56;101838.06;;;7.17;100.00
47054;BME280;32811;52.382;5.270;2023-01-30T12:25:30;101826.91;;;7.16;100.00
47054;BME280;32811;52.382;5.270;2023-01-30T12:30:51;101831.41;;;7.22;100.00
47054;BME280;32811;52.382;5.270;2023-01-30T12:33:20;101845.19;;;7.25;100.00
47054;BME280;32811;52.382;5.270;2023-01-30T12:38:37;101849.22;;;7.43;100.00
47054;BME280;32811;52.382;5.270;2023-01-30T12:41:22;101848.69;;;7.27;100.00
47054;BME280;32811;52.382;5.270;2023-01-30T12:44:08;101847.25;;;7.36;100.00
47054;BME280;32811;52.382;5.270;2023-01-30T12:52:41;101854.09;;;7.35;100.00
47054;BME280;32811;52.382;5.270;2023-01-30T12:55:25;101851.63;;;7.13;100.00
47054;BME280;32811;52.382;5.270;2023-01-30T12:57:59;101857.63;;;7.13;100.00
47054;BME280;32811;52.382;5.270;2023-01-30T13:03:38;101865.41;;;7.16;100.00
47054;BME280;32811;52.382;5.270;2023-01-30T13:09:28;101879.25;;;6.96;100.00
47054;BME280;32811;52.382;5.270;2023-01-30T13:17:19;101887.41;;;7.08;100.00
47054;BME280;32811;52.382;5.270;2023-01-30T13:22:54;101902.47;;;7.23;100.00
47054;BME280;32811;52.382;5.270;2023-01-30T13:25:38;101905.88;;;7.22;100.00
47054;BME280;32811;52.382;5.270;2023-01-30T13:28:28;101912.03;;;7.27;100.00
47054;BME280;32811;52.382;5.270;2023-01-30T13:30:57;101913.56;;;7.22;100.00
47054;BME280;32811;52.382;5.270;2023-01-30T13:33:32;101914.09;;;7.13;100.00
47054;BME280;32811;52.382;5.270;2023-01-30T13:38:59;101922.84;;;7.18;100.00
47054;BME280;32811;52.382;5.270;2023-01-30T13:41:35;101920.16;;;7.15;100.00
47054;BME280;32811;52.382;5.270;2023-01-30T13:44:22;101922.06;;;7.21;100.00
47054;BME280;32811;52.382;5.270;2023-01-30T13:46:52;101929.91;;;7.24;100.00
47054;BME280;32811;52.382;5.270;2023-01-30T13:52:08;101931.84;;;7.07;100.00
47054;BME280;32811;52.382;5.270;2023-01-30T13:57:44;101947.59;;;7.16;100.00
47054;BME280;32811;52.382;5.270;2023-01-30T14:00:21;101955.88;;;7.09;100.00
47054;BME280;32811;52.382;5.270;2023-01-30T14:08:17;101970.81;;;7.19;100.00
47054;BME280;32811;52.382;5.270;2023-01-30T14:10:46;101972.28;;;7.13;100.00
47054;BME280;32811;52.382;5.270;2023-01-30T14:13:15;101967.97;;;7.12;100.00
47054;BME280;32811;52.382;5.270;2023-01-30T14:15:56;101981.66;;;7.12;100.00
47054;BME280;32811;52.382;5.270;2023-01-30T14:18:32;101986.69;;;7.09;100.00
47054;BME280;32811;52.382;5.270;2023-01-30T14:21:12;101994.22;;;7.04;100.00
47054;BME280;32811;52.382;5.270;2023-01-30T14:23:40;102001.13;;;7.05;100.00
47054;BME280;32811;52.382;5.270;2023-01-30T14:34:44;102017.91;;;6.97;100.00
47054;BME280;32811;52.382;5.270;2023-01-30T14:37:44;102021.25;;;6.95;100.00
47054;BME280;32811;52.382;5.270;2023-01-30T14:45:48;102044.47;;;6.98;100.00
47054;BME280;32811;52.382;5.270;2023-01-30T14:50:49;102061.63;;;6.99;100.00
47054;BME280;32811;52.382;5.270;2023-01-30T14:53:16;102066.56;;;6.94;100.00
47054;BME280;32811;52.382;5.270;2023-01-30T14:55:43;102070.88;;;6.95;100.00
47054;BME280;32811;52.382;5.270;2023-01-30T14:58:16;102078.22;;;6.86;100.00
47054;BME280;32811;52.382;5.270;2023-01-30T15:00:43;102080.22;;;6.93;100.00
47054;BME280;32811;52.382;5.270;2023-01-30T15:03:18;102080.03;;;6.89;100.00
47054;BME280;32811;52.382;5.270;2023-01-30T15:05:46;102085.94;;;6.86;100.00
47054;BME280;32811;52.382;5.270;2023-01-30T15:08:23;102091.06;;;6.86;100.00
47054;BME280;32811;52.382;5.270;2023-01-30T15:11:04;102101.94;;;6.80;100.00
47054;BME280;32811;52.382;5.270;2023-01-30T15:13:43;102096.06;;;6.83;100.00
47054;BME280;32811;52.382;5.270;2023-01-30T15:27:06;102124.97;;;6.58;100.00
47054;BME280;32811;52.382;5.270;2023-01-30T15:32:46;102134.97;;;6.52;100.00
47054;BME280;32811;52.382;5.270;2023-01-30T15:37:52;102138.13;;;6.25;100.00
47054;BME280;32811;52.382;5.270;2023-01-30T15:40:23;102158.34;;;6.38;100.00
47054;BME280;32811;52.382;5.270;2023-01-30T15:50:28;102160.94;;;6.19;100.00
47054;BME280;32811;52.382;5.270;2023-01-30T15:52:55;102171.06;;;6.16;100.00
47054;BME280;32811;52.382;5.270;2023-01-30T15:55:35;102175.03;;;6.09;100.00
47054;BME280;32811;52.382;5.270;2023-01-30T15:58:10;102176.66;;;6.07;100.00
47054;BME280;32811;52.382;5.270;2023-01-30T16:00:46;102189.88;;;5.97;100.00
47054;BME280;32811;52.382;5.270;2023-01-30T16:03:20;102189.56;;;5.91;100.00
47054;BME280;32811;52.382;5.270;2023-01-30T16:05:50;102207.84;;;5.79;100.00
47054;BME280;32811;52.382;5.270;2023-01-30T16:08:21;102209.53;;;5.78;100.00
47054;BME280;32811;52.382;5.270;2023-01-30T16:10:48;102212.13;;;5.80;100.00
47054;BME280;32811;52.382;5.270;2023-01-30T16:13:16;102222.38;;;5.80;100.00
47054;BME280;32811;52.382;5.270;2023-01-30T16:15:52;102221.09;;;5.70;100.00